sensor_id;sensor_type;location;lat;lon;timestamp;pressure;altitude;pressure_sealevel;temperature;humidity
66479;BME280;53294;47.912;13.526;2023-12-29T00:01:29;96401.09;;;6.72;58.33
66479;BME280;53294;47.912;13.526;2023-12-29T00:03:56;96391.50;;;6.76;57.53
66479;BME280;53294;47.912;13.526;2023-12-29T00:06:24;96388.00;;;6.75;57.25
66479;BME280;53294;47.912;13.526;2023-12-29T00:08:51;96391.19;;;6.67;57.35
66479;BME280;53294;47.912;13.526;2023-12-29T00:11:21;96391.47;;;6.71;57.92
66479;BME280;53294;47.912;13.526;2023-12-29T00:13:49;96401.09;;;6.72;57.41
66479;BME280;53294;47.912;13.526;2023-12-29T00:16:15;96389.28;;;6.52;58.21
66479;BME280;53294;47.912;13.526;2023-12-29T00:18:42;96387.19;;;6.59;58.14
66479;BME280;53294;47.912;13.526;2023-12-29T00:21:10;96392.22;;;6.45;57.15
66479;BME280;53294;47.912;13.526;2023-12-29T00:23:37;96388.25;;;6.53;58.92
66479;BME280;53294;47.912;13.526;2023-12-29T00:26:03;96385.03;;;6.61;58.34
66479;BME280;53294;47.912;13.526;2023-12-29T00:28:30;96390.41;;;6.67;58.61
66479;BME280;53294;47.912;13.526;2023-12-29T00:30:57;96382.91;;;6.58;58.65
66479;BME280;53294;47.912;13.526;2023-12-29T00:33:28;96387.22;;;6.70;58.02
66479;BME280;53294;47.912;13.526;2023-12-29T00:35:57;96400.56;;;6.80;58.60
66479;BME280;53294;47.912;13.526;2023-12-29T00:38:26;96405.38;;;6.83;59.48
66479;BME280;53294;47.912;13.526;2023-12-29T00:40:53;96391.47;;;6.86;59.39
66479;BME280;53294;47.912;13.526;2023-12-29T00:43:20;96409.13;;;6.87;58.44
66479;BME280;53294;47.912;13.526;2023-12-29T00:45:48;96401.09;;;6.77;58.53
66479;BME280;53294;47.912;13.526;2023-12-29T00:48:14;96402.69;;;6.78;57.97
66479;BME280;53294;47.912;13.526;2023-12-29T00:50:42;96409.63;;;6.74;58.81
66479;BME280;53294;47.912;13.526;2023-12-29T00:53:08;96409.66;;;6.84;58.82
66479;BME280;53294;47.912;13.526;2023-12-29T00:55:35;96417.41;;;6.86;57.93
66479;BME280;53294;47.912;13.526;2023-12-29T00:58:02;96416.03;;;6.88;57.48
66479;BME280;53294;47.912;13.526;2023-12-29T01:00:29;96419.53;;;6.99;57.44
66479;BME280;53294;47.912;13.526;2023-12-29T01:02:56;96422.47;;;7.03;57.69
66479;BME280;53294;47.912;13.526;2023-12-29T01:05:23;96410.22;;;7.12;57.96
66479;BME280;53294;47.912;13.526;2023-12-29T01:07:50;96408.06;;;7.24;57.66
66479;BME280;53294;47.912;13.526;2023-12-29T01:10:16;96402.69;;;7.34;57.04
66479;BME280;53294;47.912;13.526;2023-12-29T01:12:43;96398.38;;;7.59;55.84
66479;BME280;53294;47.912;13.526;2023-12-29T01:15:10;96401.56;;;7.71;55.37
66479;BME280;53294;47.912;13.526;2023-12-29T01:17:37;96394.56;;;7.91;54.22
66479;BME280;53294;47.912;13.526;2023-12-29T01:20:03;96411.09;;;8.08;53.40
66479;BME280;53294;47.912;13.526;2023-12-29T01:22:31;96410.53;;;8.22;52.89
66479;BME280;53294;47.912;13.526;2023-12-29T01:25:01;96409.97;;;8.25;53.50
66479;BME280;53294;47.912;13.526;2023-12-29T01:27:29;96403.19;;;8.43;53.22
66479;BME280;53294;47.912;13.526;2023-12-29T01:29:56;96398.59;;;8.54;52.77
66479;BME280;53294;47.912;13.526;2023-12-29T01:32:23;96405.53;;;8.60;52.54
66479;BME280;53294;47.912;13.526;2023-12-29T01:34:51;96408.28;;;8.44;54.96
66479;BME280;53294;47.912;13.526;2023-12-29T01:37:19;96402.38;;;8.42;55.29
66479;BME280;53294;47.912;13.526;2023-12-29T01:39:46;96402.50;;;8.17;56.42
66479;BME280;53294;47.912;13.526;2023-12-29T01:42:12;96404.13;;;8.07;56.77
66479;BME280;53294;47.912;13.526;2023-12-29T01:44:39;96402.56;;;8.06;57.43
66479;BME280;53294;47.912;13.526;2023-12-29T01:47:13;96401.25;;;7.99;58.06
66479;BME280;53294;47.912;13.526;2023-12-29T01:49:45;96404.72;;;7.89;59.02
66479;BME280;53294;47.912;13.526;2023-12-29T01:52:14;96394.84;;;7.84;59.42
66479;BME280;53294;47.912;13.526;2023-12-29T01:54:41;96392.97;;;7.90;59.99
66479;BME280;53294;47.912;13.526;2023-12-29T01:57:09;96399.38;;;7.94;59.82
66479;BME280;53294;47.912;13.526;2023-12-29T01:59:36;96397.78;;;7.88;59.47
66479;BME280;53294;47.912;13.526;2023-12-29T02:02:04;96392.44;;;7.83;59.45
66479;BME280;53294;47.912;13.526;2023-12-29T02:04:31;96393.53;;;7.82;59.61
66479;BME280;53294;47.912;13.526;2023-12-29T02:06:59;96390.91;;;7.66;59.68
66479;BME280;53294;47.912;13.526;2023-12-29T02:09:26;96383.91;;;7.81;59.26
66479;BME280;53294;47.912;13.526;2023-12-29T02:11:54;96383.88;;;7.91;58.55
66479;BME280;53294;47.912;13.526;2023-12-29T02:14:20;96375.59;;;7.87;58.36
66479;BME280;53294;47.912;13.526;2023-12-29T02:16:58;96382.81;;;7.87;58.47
66479;BME280;53294;47.912;13.526;2023-12-29T02:19:36;96370.00;;;7.73;58.57
66479;BME280;53294;47.912;13.526;2023-12-29T02:22:05;96374.81;;;7.77;58.46
66479;BME280;53294;47.912;13.526;2023-12-29T02:24:33;96369.97;;;7.89;58.80
66479;BME280;53294;47.912;13.526;2023-12-29T02:27:25;96366.50;;;7.88;58.59
66479;BME280;53294;47.912;13.526;2023-12-29T02:30:09;96370.78;;;7.84;59.24
66479;BME280;53294;47.912;13.526;2023-12-29T02:32:40;96371.09;;;7.72;59.54
66479;BME280;53294;47.912;13.526;2023-12-29T02:35:14;96375.63;;;7.77;59.06
66479;BME280;53294;47.912;13.526;2023-12-29T02:37:41;96363.88;;;7.63;58.78
66479;BME280;53294;47.912;13.526;2023-12-29T02:40:09;96361.97;;;7.73;58.50
66479;BME280;53294;47.912;13.526;2023-12-29T02:42:36;96370.00;;;7.79;57.87
66479;BME280;53294;47.912;13.526;2023-12-29T02:45:03;96375.31;;;7.89;57.37
66479;BME280;53294;47.912;13.526;2023-12-29T02:47:30;96361.97;;;7.84;57.53
66479;BME280;53294;47.912;13.526;2023-12-29T02:49:57;96365.19;;;7.70;57.82
66479;BME280;53294;47.912;13.526;2023-12-29T02:52:23;96351.59;;;7.62;58.88
66479;BME280;53294;47.912;13.526;2023-12-29T02:54:50;96356.19;;;7.46;59.53
66479;BME280;53294;47.912;13.526;2023-12-29T02:57:17;96355.66;;;7.39;59.19
66479;BME280;53294;47.912;13.526;2023-12-29T02:59:44;96347.91;;;7.37;59.08
66479;BME280;53294;47.912;13.526;2023-12-29T03:02:10;96351.41;;;7.22;59.55
66479;BME280;53294;47.912;13.526;2023-12-29T03:04:37;96353.56;;;6.79;62.63
66479;BME280;53294;47.912;13.526;2023-12-29T03:07:04;96344.75;;;6.94;61.63
66479;BME280;53294;47.912;13.526;2023-12-29T03:09:30;96351.44;;;7.12;60.63
66479;BME280;53294;47.912;13.526;2023-12-29T03:11:57;96342.34;;;7.23;60.45
66479;BME280;53294;47.912;13.526;2023-12-29T03:14:24;96338.06;;;7.27;59.76
66479;BME280;53294;47.912;13.526;2023-12-29T03:16:51;96343.94;;;7.29;60.40
66479;BME280;53294;47.912;13.526;2023-12-29T03:19:17;96330.59;;;7.24;60.62
66479;BME280;53294;47.912;13.526;2023-12-29T03:21:44;96341.28;;;7.24;60.42
66479;BME280;53294;47.912;13.526;2023-12-29T03:24:11;96325.75;;;7.26;60.45
66479;BME280;53294;47.912;13.526;2023-12-29T03:26:38;96331.63;;;7.28;59.88
66479;BME280;53294;47.912;13.526;2023-12-29T03:29:04;96318.81;;;7.25;59.89
66479;BME280;53294;47.912;13.526;2023-12-29T03:31:31;96317.75;;;7.16;60.45
66479;BME280;53294;47.912;13.526;2023-12-29T03:33:58;96309.75;;;7.11;60.87
66479;BME280;53294;47.912;13.526;2023-12-29T03:36:25;96300.16;;;6.99;61.56
66479;BME280;53294;47.912;13.526;2023-12-29T03:38:51;96303.91;;;6.93;61.86
66479;BME280;53294;47.912;13.526;2023-12-29T03:41:18;96299.91;;;6.86;61.77
66479;BME280;53294;47.912;13.526;2023-12-29T03:43:45;96291.91;;;6.86;61.97
66479;BME280;53294;47.912;13.526;2023-12-29T03:46:21;96282.03;;;6.81;62.10
66479;BME280;53294;47.912;13.526;2023-12-29T03:48:48;96291.63;;;6.77;62.36
66479;BME280;53294;47.912;13.526;2023-12-29T03:51:16;96282.00;;;6.71;62.38
66479;BME280;53294;47.912;13.526;2023-12-29T03:53:43;96284.44;;;6.62;63.00
66479;BME280;53294;47.912;13.526;2023-12-29T03:56:14;96279.88;;;6.32;63.27
66479;BME280;53294;47.912;13.526;2023-12-29T03:58:43;96276.66;;;6.40;63.33
66479;BME280;53294;47.912;13.526;2023-12-29T04:01:10;96282.56;;;6.47;63.44
66479;BME280;53294;47.912;13.526;2023-12-29T04:03:38;96279.34;;;6.45;63.66
66479;BME280;53294;47.912;13.526;2023-12-29T04:06:06;96285.19;;;6.37;64.03
66479;BME280;53294;47.912;13.526;2023-12-29T04:08:34;96284.13;;;6.27;64.68
66479;BME280;53294;47.912;13.526;2023-12-29T04:11:01;96286.75;;;6.12;65.11
66479;BME280;53294;47.912;13.526;2023-12-29T04:13:29;96287.78;;;5.96;65.18
66479;BME280;53294;47.912;13.526;2023-12-29T04:15:55;96292.88;;;5.39;67.74
66479;BME280;53294;47.912;13.526;2023-12-29T04:18:23;96304.91;;;5.47;67.72
66479;BME280;53294;47.912;13.526;2023-12-29T04:20:50;96301.97;;;5.48;67.63
66479;BME280;53294;47.912;13.526;2023-12-29T04:23:17;96299.28;;;5.38;68.22
66479;BME280;53294;47.912;13.526;2023-12-29T04:25:44;96292.94;;;5.54;67.58
66479;BME280;53294;47.912;13.526;2023-12-29T04:28:11;96292.50;;;5.73;66.91
66479;BME280;53294;47.912;13.526;2023-12-29T04:30:38;96304.81;;;5.94;66.70
66479;BME280;53294;47.912;13.526;2023-12-29T04:33:05;96301.06;;;5.85;67.38
66479;BME280;53294;47.912;13.526;2023-12-29T04:35:31;96289.88;;;5.88;67.77
66479;BME280;53294;47.912;13.526;2023-12-29T04:37:58;96280.38;;;6.08;67.21
66479;BME280;53294;47.912;13.526;2023-12-29T04:40:25;96277.72;;;6.23;66.51
66479;BME280;53294;47.912;13.526;2023-12-29T04:42:52;96276.66;;;6.19;67.06
66479;BME280;53294;47.912;13.526;2023-12-29T04:45:18;96282.81;;;6.30;67.09
66479;BME280;53294;47.912;13.526;2023-12-29T04:47:45;96282.28;;;6.33;66.84
66479;BME280;53294;47.912;13.526;2023-12-29T04:50:12;96282.00;;;6.40;66.44
66479;BME280;53294;47.912;13.526;2023-12-29T04:52:38;96281.22;;;6.39;66.40
66479;BME280;53294;47.912;13.526;2023-12-29T04:55:05;96279.59;;;6.28;66.57
66479;BME280;53294;47.912;13.526;2023-12-29T04:57:32;96278.00;;;6.32;66.48
66479;BME280;53294;47.912;13.526;2023-12-29T04:59:59;96279.84;;;6.11;67.16
66479;BME280;53294;47.912;13.526;2023-12-29T05:02:26;96281.44;;;6.12;66.97
66479;BME280;53294;47.912;13.526;2023-12-29T05:04:52;96279.84;;;6.21;66.51
66479;BME280;53294;47.912;13.526;2023-12-29T05:07:19;96274.78;;;6.35;65.92
66479;BME280;53294;47.912;13.526;2023-12-29T05:09:46;96271.88;;;6.42;65.58
66479;BME280;53294;47.912;13.526;2023-12-29T05:12:14;96268.69;;;6.45;65.07
66479;BME280;53294;47.912;13.526;2023-12-29T05:14:41;96277.75;;;6.49;64.99
66479;BME280;53294;47.912;13.526;2023-12-29T05:17:07;96279.88;;;6.52;65.26
66479;BME280;53294;47.912;13.526;2023-12-29T05:19:35;96268.69;;;6.45;65.78
66479;BME280;53294;47.912;13.526;2023-12-29T05:22:02;96277.75;;;6.44;65.65
66479;BME280;53294;47.912;13.526;2023-12-29T05:24:28;96286.28;;;6.46;65.59
66479;BME280;53294;47.912;13.526;2023-12-29T05:26:55;96290.03;;;6.50;65.04
66479;BME280;53294;47.912;13.526;2023-12-29T05:29:22;96295.91;;;6.42;65.17
66479;BME280;53294;47.912;13.526;2023-12-29T05:31:49;96299.09;;;6.44;65.86
66479;BME280;53294;47.912;13.526;2023-12-29T05:34:16;96298.56;;;6.47;64.59
66479;BME280;53294;47.912;13.526;2023-12-29T05:36:42;96303.31;;;6.19;65.66
66479;BME280;53294;47.912;13.526;2023-12-29T05:39:09;96299.88;;;6.24;65.24
66479;BME280;53294;47.912;13.526;2023-12-29T05:41:36;96294.25;;;6.31;64.18
66479;BME280;53294;47.912;13.526;2023-12-29T05:44:03;96292.13;;;6.43;63.42
66479;BME280;53294;47.912;13.526;2023-12-29T05:46:29;96291.63;;;6.46;64.41
66479;BME280;53294;47.912;13.526;2023-12-29T05:48:56;96288.16;;;6.56;65.00
66479;BME280;53294;47.912;13.526;2023-12-29T05:51:23;96280.97;;;6.67;65.25
66479;BME280;53294;47.912;13.526;2023-12-29T05:53:49;96291.09;;;6.59;65.61
66479;BME280;53294;47.912;13.526;2023-12-29T05:56:16;96284.44;;;6.46;65.21
66479;BME280;53294;47.912;13.526;2023-12-29T05:58:43;96295.91;;;6.42;65.88
66479;BME280;53294;47.912;13.526;2023-12-29T06:01:10;96301.47;;;6.25;66.84
66479;BME280;53294;47.912;13.526;2023-12-29T06:03:37;96314.53;;;6.16;68.17
66479;BME280;53294;47.912;13.526;2023-12-29T06:06:04;96324.13;;;6.22;68.05
66479;BME280;53294;47.912;13.526;2023-12-29T06:08:31;96314.78;;;6.15;68.30
66479;BME280;53294;47.912;13.526;2023-12-29T06:10:57;96319.88;;;6.26;68.44
66479;BME280;53294;47.912;13.526;2023-12-29T06:13:24;96303.88;;;6.37;68.35
66479;BME280;53294;47.912;13.526;2023-12-29T06:15:51;96295.88;;;6.47;68.24
66479;BME280;53294;47.912;13.526;2023-12-29T06:18:17;96300.69;;;6.55;67.94
66479;BME280;53294;47.912;13.526;2023-12-29T06:20:44;96308.44;;;6.57;67.74
66479;BME280;53294;47.912;13.526;2023-12-29T06:23:11;96298.03;;;6.50;67.90
66479;BME280;53294;47.912;13.526;2023-12-29T06:25:38;96308.16;;;6.43;67.44
66479;BME280;53294;47.912;13.526;2023-12-29T06:28:07;96298.28;;;6.33;67.69
66479;BME280;53294;47.912;13.526;2023-12-29T06:30:35;96298.25;;;6.23;67.91
66479;BME280;53294;47.912;13.526;2023-12-29T06:33:02;96307.31;;;6.11;68.26
66479;BME280;53294;47.912;13.526;2023-12-29T06:35:29;96302.22;;;6.15;68.16
66479;BME280;53294;47.912;13.526;2023-12-29T06:37:55;96303.09;;;6.31;67.63
66479;BME280;53294;47.912;13.526;2023-12-29T06:40:22;96291.88;;;6.39;66.97
66479;BME280;53294;47.912;13.526;2023-12-29T06:42:49;96294.53;;;6.39;67.09
66479;BME280;53294;47.912;13.526;2023-12-29T06:45:16;96302.28;;;6.46;66.99
66479;BME280;53294;47.912;13.526;2023-12-29T06:47:42;96295.88;;;6.52;66.98
66479;BME280;53294;47.912;13.526;2023-12-29T06:50:09;96298.28;;;6.54;67.08
66479;BME280;53294;47.912;13.526;2023-12-29T06:52:40;96285.75;;;6.59;67.27
66479;BME280;53294;47.912;13.526;2023-12-29T06:55:07;96308.72;;;6.60;67.21
66479;BME280;53294;47.912;13.526;2023-12-29T06:57:35;96302.31;;;6.72;67.07
66479;BME280;53294;47.912;13.526;2023-12-29T07:00:03;96305.78;;;6.72;66.82
66479;BME280;53294;47.912;13.526;2023-12-29T07:02:30;96302.31;;;6.72;66.69
66479;BME280;53294;47.912;13.526;2023-12-29T07:04:57;96296.44;;;6.80;65.65
66479;BME280;53294;47.912;13.526;2023-12-29T07:07:24;96303.09;;;6.88;65.40
66479;BME280;53294;47.912;13.526;2023-12-29T07:09:51;96308.72;;;6.81;66.24
66479;BME280;53294;47.912;13.526;2023-12-29T07:12:17;96317.78;;;6.75;66.25
66479;BME280;53294;47.912;13.526;2023-12-29T07:14:44;96320.47;;;6.80;65.51
66479;BME280;53294;47.912;13.526;2023-12-29T07:17:11;96322.59;;;6.88;64.87
66479;BME280;53294;47.912;13.526;2023-12-29T07:19:38;96320.97;;;6.97;64.35
66479;BME280;53294;47.912;13.526;2023-12-29T07:22:05;96320.47;;;6.90;65.71
66479;BME280;53294;47.912;13.526;2023-12-29T07:24:35;96329.00;;;6.92;66.09
66479;BME280;53294;47.912;13.526;2023-12-29T07:27:03;96325.78;;;6.95;66.33
66479;BME280;53294;47.912;13.526;2023-12-29T07:29:30;96312.44;;;7.00;66.26
66479;BME280;53294;47.912;13.526;2023-12-29T07:31:57;96311.34;;;7.07;66.29
66479;BME280;53294;47.912;13.526;2023-12-29T07:34:24;96308.41;;;7.08;66.73
66479;BME280;53294;47.912;13.526;2023-12-29T07:36:51;96314.81;;;7.12;67.13
66479;BME280;53294;47.912;13.526;2023-12-29T07:39:18;96315.63;;;7.13;66.91
66479;BME280;53294;47.912;13.526;2023-12-29T07:41:45;96315.09;;;7.11;67.41
66479;BME280;53294;47.912;13.526;2023-12-29T07:44:12;96307.59;;;7.13;68.07
66479;BME280;53294;47.912;13.526;2023-12-29T07:46:40;96312.97;;;7.18;66.94
66479;BME280;53294;47.912;13.526;2023-12-29T07:49:07;96317.22;;;7.24;66.51
66479;BME280;53294;47.912;13.526;2023-12-29T07:51:38;96319.09;;;7.29;66.19
66479;BME280;53294;47.912;13.526;2023-12-29T07:54:05;96318.53;;;7.32;66.58
66479;BME280;53294;47.912;13.526;2023-12-29T07:56:31;96327.34;;;7.37;66.45
66479;BME280;53294;47.912;13.526;2023-12-29T07:58:58;96327.38;;;7.27;66.50
66479;BME280;53294;47.912;13.526;2023-12-29T08:01:25;96335.13;;;7.18;67.16
66479;BME280;53294;47.912;13.526;2023-12-29T08:03:53;96337.53;;;6.89;69.17
66479;BME280;53294;47.912;13.526;2023-12-29T08:06:20;96342.88;;;6.94;66.50
66479;BME280;53294;47.912;13.526;2023-12-29T08:08:47;96339.13;;;6.85;66.26
66479;BME280;53294;47.912;13.526;2023-12-29T08:11:15;96328.47;;;7.06;65.18
66479;BME280;53294;47.912;13.526;2023-12-29T08:13:43;96324.16;;;7.25;65.94
66479;BME280;53294;47.912;13.526;2023-12-29T08:16:11;96321.72;;;7.39;65.09
66479;BME280;53294;47.912;13.526;2023-12-29T08:18:38;96318.75;;;7.51;64.75
66479;BME280;53294;47.912;13.526;2023-12-29T08:21:05;96315.50;;;7.64;64.83
66479;BME280;53294;47.912;13.526;2023-12-29T08:23:32;96313.06;;;7.73;64.68
66479;BME280;53294;47.912;13.526;2023-12-29T08:25:58;96309.81;;;7.81;65.05
66479;BME280;53294;47.912;13.526;2023-12-29T08:28:25;96322.88;;;7.93;64.87
66479;BME280;53294;47.912;13.526;2023-12-29T08:30:52;96311.94;;;7.89;65.60
66479;BME280;53294;47.912;13.526;2023-12-29T08:33:19;96317.84;;;7.86;65.30
66479;BME280;53294;47.912;13.526;2023-12-29T08:35:46;96321.25;;;7.92;65.32
66479;BME280;53294;47.912;13.526;2023-12-29T08:38:12;96322.88;;;7.93;65.55
66479;BME280;53294;47.912;13.526;2023-12-29T08:40:40;96328.75;;;8.00;65.38
66479;BME280;53294;47.912;13.526;2023-12-29T08:43:08;96329.50;;;8.06;64.76
66479;BME280;53294;47.912;13.526;2023-12-29T08:45:34;96319.03;;;8.15;64.32
66479;BME280;53294;47.912;13.526;2023-12-29T08:48:03;96340.94;;;8.22;63.91
66479;BME280;53294;47.912;13.526;2023-12-29T08:50:30;96339.44;;;8.00;63.68
66479;BME280;53294;47.912;13.526;2023-12-29T08:52:57;96347.75;;;7.99;62.79
66479;BME280;53294;47.912;13.526;2023-12-29T08:55:24;96358.66;;;8.07;61.72
66479;BME280;53294;47.912;13.526;2023-12-29T08:57:50;96345.78;;;8.15;61.02
66479;BME280;53294;47.912;13.526;2023-12-29T09:00:17;96345.16;;;8.28;59.93
66479;BME280;53294;47.912;13.526;2023-12-29T09:02:44;96348.56;;;8.49;59.46
66479;BME280;53294;47.912;13.526;2023-12-29T09:05:11;96345.22;;;8.68;59.15
66479;BME280;53294;47.912;13.526;2023-12-29T09:07:38;96338.00;;;8.68;58.30
66479;BME280;53294;47.912;13.526;2023-12-29T09:10:05;96342.06;;;8.60;58.92
66479;BME280;53294;47.912;13.526;2023-12-29T09:12:38;96346.56;;;8.70;59.25
66479;BME280;53294;47.912;13.526;2023-12-29T09:15:06;96351.53;;;8.87;59.33
66479;BME280;53294;47.912;13.526;2023-12-29T09:17:33;96354.31;;;9.06;59.04
66479;BME280;53294;47.912;13.526;2023-12-29T09:20:01;96359.81;;;9.20;60.20
66479;BME280;53294;47.912;13.526;2023-12-29T09:22:36;96371.47;;;8.71;60.55
66479;BME280;53294;47.912;13.526;2023-12-29T09:25:03;96365.97;;;8.52;60.52
66479;BME280;53294;47.912;13.526;2023-12-29T09:27:30;96374.47;;;8.64;59.95
66479;BME280;53294;47.912;13.526;2023-12-29T09:29:57;96364.19;;;8.76;60.13
66479;BME280;53294;47.912;13.526;2023-12-29T09:32:24;96359.19;;;8.99;59.04
66479;BME280;53294;47.912;13.526;2023-12-29T09:34:50;96370.56;;;9.15;58.39
66479;BME280;53294;47.912;13.526;2023-12-29T09:37:18;96357.88;;;9.26;58.95
66479;BME280;53294;47.912;13.526;2023-12-29T09:39:45;96356.19;;;9.35;59.36
66479;BME280;53294;47.912;13.526;2023-12-29T09:42:20;96360.28;;;9.27;59.10
66479;BME280;53294;47.912;13.526;2023-12-29T09:44:52;96370.78;;;9.24;58.70
66479;BME280;53294;47.912;13.526;2023-12-29T09:47:24;96376.63;;;9.31;58.42
66479;BME280;53294;47.912;13.526;2023-12-29T09:49:53;96360.13;;;9.43;57.71
66479;BME280;53294;47.912;13.526;2023-12-29T09:52:21;96360.91;;;9.48;57.67
66479;BME280;53294;47.912;13.526;2023-12-29T09:54:51;96358.06;;;9.64;57.89
66479;BME280;53294;47.912;13.526;2023-12-29T09:57:18;96359.19;;;9.82;57.45
66479;BME280;53294;47.912;13.526;2023-12-29T09:59:48;96351.91;;;9.87;56.22
66479;BME280;53294;47.912;13.526;2023-12-29T10:02:20;96350.53;;;9.90;56.35
66479;BME280;53294;47.912;13.526;2023-12-29T10:04:47;96354.41;;;10.03;57.06
66479;BME280;53294;47.912;13.526;2023-12-29T10:07:24;96349.72;;;10.14;55.80
66479;BME280;53294;47.912;13.526;2023-12-29T10:09:54;96335.06;;;10.25;55.48
66479;BME280;53294;47.912;13.526;2023-12-29T10:12:22;96333.91;;;10.31;54.41
66479;BME280;53294;47.912;13.526;2023-12-29T10:25:16;96308.75;;;10.46;56.82
66479;BME280;53294;47.912;13.526;2023-12-29T10:27:44;96325.31;;;10.53;57.00
66479;BME280;53294;47.912;13.526;2023-12-29T10:30:11;96306.13;;;10.60;56.62
66479;BME280;53294;47.912;13.526;2023-12-29T10:32:53;96310.56;;;10.70;56.96
66479;BME280;53294;47.912;13.526;2023-12-29T10:35:21;96309.47;;;10.71;52.75
66479;BME280;53294;47.912;13.526;2023-12-29T10:37:50;96291.75;;;10.70;51.91
66479;BME280;53294;47.912;13.526;2023-12-29T10:40:18;96292.88;;;10.83;52.07
66479;BME280;53294;47.912;13.526;2023-12-29T10:42:52;96286.81;;;10.77;50.39
66479;BME280;53294;47.912;13.526;2023-12-29T10:45:20;96282.06;;;10.88;50.68
66479;BME280;53294;47.912;13.526;2023-12-29T10:47:47;96280.28;;;10.97;50.44
66479;BME280;53294;47.912;13.526;2023-12-29T10:50:15;96272.75;;;11.13;50.15
66479;BME280;53294;47.912;13.526;2023-12-29T10:52:41;96274.56;;;11.31;50.33
66479;BME280;53294;47.912;13.526;2023-12-29T10:55:10;96268.81;;;11.52;49.44
66479;BME280;53294;47.912;13.526;2023-12-29T10:57:40;96259.84;;;11.43;48.66
66479;BME280;53294;47.912;13.526;2023-12-29T11:00:07;96262.53;;;11.57;48.37
66479;BME280;53294;47.912;13.526;2023-12-29T11:02:35;96255.66;;;11.64;48.03
66479;BME280;53294;47.912;13.526;2023-12-29T11:05:07;96248.81;;;12.09;47.73
66479;BME280;53294;47.912;13.526;2023-12-29T11:07:39;96243.63;;;12.71;47.51
66479;BME280;53294;47.912;13.526;2023-12-29T11:10:07;96235.94;;;13.19;46.62
66479;BME280;53294;47.912;13.526;2023-12-29T11:12:36;96231.31;;;13.42;46.19
66479;BME280;53294;47.912;13.526;2023-12-29T11:15:05;96223.09;;;13.56;45.35
66479;BME280;53294;47.912;13.526;2023-12-29T11:17:34;96228.84;;;13.63;44.37
66479;BME280;53294;47.912;13.526;2023-12-29T11:20:03;96216.16;;;13.72;44.12
66479;BME280;53294;47.912;13.526;2023-12-29T11:22:31;96222.19;;;13.69;43.02
66479;BME280;53294;47.912;13.526;2023-12-29T11:24:59;96222.78;;;13.17;45.35
66479;BME280;53294;47.912;13.526;2023-12-29T11:27:28;96229.91;;;12.59;49.13
66479;BME280;53294;47.912;13.526;2023-12-29T11:30:01;96226.72;;;12.57;49.61
66479;BME280;53294;47.912;13.526;2023-12-29T11:32:51;96231.69;;;12.64;49.20
66479;BME280;53294;47.912;13.526;2023-12-29T11:35:55;96224.50;;;12.36;48.91
66479;BME280;53294;47.912;13.526;2023-12-29T11:38:37;96218.38;;;11.99;49.08
66479;BME280;53294;47.912;13.526;2023-12-29T11:43:42;96205.22;;;11.98;49.63
66479;BME280;53294;47.912;13.526;2023-12-29T11:46:35;96210.69;;;12.29;48.43
66479;BME280;53294;47.912;13.526;2023-12-29T11:49:01;96200.75;;;12.61;47.70
66479;BME280;53294;47.912;13.526;2023-12-29T11:51:44;96192.28;;;12.77;47.25
66479;BME280;53294;47.912;13.526;2023-12-29T11:54:22;96204.25;;;12.39;48.21
66479;BME280;53294;47.912;13.526;2023-12-29T11:56:49;96201.13;;;12.68;48.64
66479;BME280;53294;47.912;13.526;2023-12-29T11:59:21;96203.38;;;13.06;46.53
66479;BME280;53294;47.912;13.526;2023-12-29T12:01:50;96191.13;;;13.32;45.50
66479;BME280;53294;47.912;13.526;2023-12-29T12:04:40;96188.56;;;13.93;44.55
66479;BME280;53294;47.912;13.526;2023-12-29T12:12:56;96191.59;;;14.26;41.57
66479;BME280;53294;47.912;13.526;2023-12-29T12:17:56;96180.13;;;13.86;40.12
66479;BME280;53294;47.912;13.526;2023-12-29T12:20:23;96185.09;;;12.95;42.14
66479;BME280;53294;47.912;13.526;2023-12-29T12:22:58;96190.19;;;12.96;44.71
66479;BME280;53294;47.912;13.526;2023-12-29T12:25:26;96195.03;;;12.85;45.36
66479;BME280;53294;47.912;13.526;2023-12-29T12:27:56;96202.81;;;12.87;45.24
66479;BME280;53294;47.912;13.526;2023-12-29T12:30:23;96197.22;;;12.83;44.64
66479;BME280;53294;47.912;13.526;2023-12-29T12:33:00;96201.34;;;12.81;45.22
66479;BME280;53294;47.912;13.526;2023-12-29T12:35:28;96197.19;;;12.74;47.27
66479;BME280;53294;47.912;13.526;2023-12-29T12:38:15;96194.50;;;12.74;46.73
66479;BME280;53294;47.912;13.526;2023-12-29T12:40:48;96200.22;;;12.82;46.76
66479;BME280;53294;47.912;13.526;2023-12-29T12:43:15;96203.81;;;12.46;47.00
66479;BME280;53294;47.912;13.526;2023-12-29T12:45:48;96191.84;;;12.29;47.17
66479;BME280;53294;47.912;13.526;2023-12-29T12:48:24;96198.69;;;12.35;47.63
66479;BME280;53294;47.912;13.526;2023-12-29T12:50:56;96196.22;;;12.25;48.39
66479;BME280;53294;47.912;13.526;2023-12-29T12:53:23;96200.94;;;12.19;49.32
66479;BME280;53294;47.912;13.526;2023-12-29T12:55:51;96198.63;;;12.49;48.68
66479;BME280;53294;47.912;13.526;2023-12-29T12:58:19;96180.88;;;12.80;48.21
66479;BME280;53294;47.912;13.526;2023-12-29T13:00:48;96186.44;;;13.15;46.88
66479;BME280;53294;47.912;13.526;2023-12-29T13:03:19;96185.72;;;13.00;47.86
66479;BME280;53294;47.912;13.526;2023-12-29T13:05:46;96182.81;;;12.88;48.29
66479;BME280;53294;47.912;13.526;2023-12-29T13:08:13;96184.91;;;12.91;48.74
66479;BME280;53294;47.912;13.526;2023-12-29T13:10:49;96181.09;;;12.92;49.13
66479;BME280;53294;47.912;13.526;2023-12-29T13:13:16;96180.03;;;13.02;49.00
66479;BME280;53294;47.912;13.526;2023-12-29T13:15:49;96175.56;;;12.97;48.04
66479;BME280;53294;47.912;13.526;2023-12-29T13:18:16;96167.38;;;13.02;47.67
66479;BME280;53294;47.912;13.526;2023-12-29T13:20:44;96175.56;;;12.88;49.17
66479;BME280;53294;47.912;13.526;2023-12-29T13:23:12;96168.94;;;13.03;47.65
66479;BME280;53294;47.912;13.526;2023-12-29T13:25:39;96168.38;;;12.84;48.51